createdAt,value
2017-08-18T17:24:12.575Z,5.73
2017-08-18T17:26:47.392Z,6.30
2017-08-18T17:29:21.803Z,6.00
2017-08-18T17:32:03.384Z,5.93
2017-08-18T17:34:39.996Z,6.03
2017-08-18T17:37:16.238Z,6.05
2017-08-18T17:39:50.977Z,6.80
2017-08-18T17:42:27.873Z,6.30
2017-08-18T17:45:02.550Z,7.03
2017-08-18T17:47:38.906Z,6.45
2017-08-18T17:50:16.167Z,6.60
2017-08-18T17:52:51.841Z,6.03
2017-08-18T17:55:25.881Z,6.90
2017-08-18T17:58:01.218Z,8.40
2017-08-18T18:00:35.118Z,7.62
2017-08-18T18:03:09.450Z,7.95
2017-08-18T18:05:43.263Z,6.70
2017-08-18T18:08:17.124Z,6.95
2017-08-18T18:10:50.962Z,7.82
2017-08-18T18:13:24.765Z,7.50
2017-08-18T18:15:59.463Z,6.93
2017-08-18T18:18:35.447Z,7.40
2017-08-18T18:21:11.550Z,6.85
2017-08-18T18:23:45.464Z,7.30
2017-08-18T18:26:22.198Z,8.05
2017-08-18T18:28:56.817Z,8.60
2017-08-18T18:31:32.760Z,8.40
2017-08-18T18:34:07.724Z,8.85
2017-08-18T18:36:41.684Z,8.35
2017-08-18T18:39:15.406Z,8.50
2017-08-18T18:41:50.651Z,9.52
2017-08-18T18:44:24.202Z,8.05
2017-08-18T18:46:57.897Z,7.35
2017-08-18T18:49:35.358Z,8.52
2017-08-18T18:52:09.408Z,7.68
2017-08-18T18:54:46.235Z,8.55
2017-08-18T18:57:19.999Z,9.40
2017-08-18T18:59:57.933Z,9.50
2017-08-18T19:02:31.526Z,9.52
2017-08-18T19:05:07.792Z,6.95
2017-08-18T19:07:41.459Z,3.97
2017-08-18T19:10:15.135Z,2.60
2017-08-18T19:12:49.787Z,1.87
2017-08-18T19:15:25.608Z,1.58
2017-08-18T19:17:59.487Z,1.37
2017-08-18T19:20:35.129Z,1.80
2017-08-18T19:23:13.312Z,1.80
2017-08-18T19:25:48.799Z,2.08
2017-08-18T19:28:22.776Z,1.23
2017-08-18T19:30:57.428Z,1.40
2017-08-18T19:33:31.808Z,1.20
2017-08-18T19:36:06.578Z,1.33
2017-08-18T19:38:42.406Z,1.20
2017-08-18T19:41:17.628Z,1.50
2017-08-18T19:43:52.434Z,1.37
2017-08-18T19:46:26.152Z,1.15
2017-08-18T19:49:01.071Z,0.90
2017-08-18T19:51:34.679Z,1.20
2017-08-18T19:54:11.345Z,0.90
2017-08-18T19:56:47.514Z,1.15
2017-08-18T19:59:22.426Z,0.90
2017-08-18T20:01:58.061Z,0.98
2017-08-18T20:04:31.962Z,1.00
2017-08-18T20:07:07.048Z,0.95
2017-08-18T20:09:40.905Z,0.80
2017-08-18T20:12:14.728Z,0.90
2017-08-18T20:14:51.024Z,0.88
2017-08-18T20:17:24.988Z,0.82
2017-08-18T20:19:58.730Z,1.00
2017-08-18T20:22:32.340Z,0.93
2017-08-18T20:25:06.034Z,0.98
2017-08-18T20:27:39.596Z,0.80
2017-08-18T20:30:13.166Z,0.90
2017-08-18T20:32:46.915Z,1.15
2017-08-18T20:35:20.595Z,0.80
2017-08-18T20:37:54.187Z,0.98
2017-08-18T20:40:27.845Z,1.23
2017-08-18T20:43:02.443Z,0.90
2017-08-18T20:45:37.338Z,0.80
2017-08-18T20:48:11.789Z,0.75
2017-08-18T20:50:46.167Z,0.82
2017-08-18T20:53:19.827Z,1.00
2017-08-18T20:55:54.370Z,0.90
2017-08-18T20:58:28.039Z,1.23
2017-08-18T21:01:01.812Z,1.00
2017-08-18T21:03:36.319Z,0.80
2017-08-18T21:06:10.034Z,0.80
2017-08-18T21:08:44.601Z,0.85
2017-08-18T21:11:18.179Z,0.93
2017-08-18T21:13:51.768Z,0.80
2017-08-18T21:16:26.050Z,0.80
2017-08-18T21:18:59.667Z,0.73
2017-08-18T21:21:33.292Z,0.80
2017-08-18T21:24:07.788Z,0.90
2017-08-18T21:26:41.656Z,0.88
2017-08-18T21:29:15.211Z,0.80
2017-08-18T21:31:49.702Z,0.90
2017-08-18T21:34:23.320Z,0.82
2017-08-18T21:36:56.890Z,0.65
2017-08-18T21:39:31.415Z,0.70
2017-08-18T21:42:05.958Z,0.90
2017-08-18T21:44:39.600Z,0.77
2017-08-18T21:47:13.339Z,0.60
2017-08-18T21:49:47.031Z,1.10
2017-08-18T21:52:20.562Z,0.88
2017-08-18T21:54:54.154Z,0.70
2017-08-18T21:57:27.860Z,0.90
2017-08-18T22:00:02.181Z,0.80
2017-08-18T22:02:35.793Z,0.98
2017-08-18T22:05:09.351Z,0.82
2017-08-18T22:07:43.078Z,0.80
2017-08-18T22:10:16.858Z,1.10
2017-08-18T22:12:50.501Z,0.90
2017-08-18T22:15:24.109Z,0.90
2017-08-18T22:17:57.642Z,0.70
2017-08-18T22:20:31.236Z,1.00
2017-08-18T22:23:04.845Z,1.08
2017-08-18T22:25:38.603Z,0.85
2017-08-18T22:28:12.395Z,0.80
2017-08-18T22:30:46.903Z,0.73
2017-08-18T22:33:20.463Z,0.75
2017-08-18T22:35:54.025Z,1.00
2017-08-18T22:38:28.330Z,0.70
2017-08-18T22:41:02.056Z,0.70
2017-08-18T22:43:35.746Z,0.82
2017-08-18T22:46:09.346Z,0.57
2017-08-18T22:48:43.163Z,0.60
2017-08-18T22:51:16.719Z,0.90
2017-08-18T22:53:50.422Z,0.80
2017-08-18T22:56:23.974Z,0.80
2017-08-18T22:58:57.678Z,0.80
2017-08-18T23:01:32.178Z,0.90
2017-08-18T23:04:06.074Z,1.00
2017-08-18T23:06:40.162Z,0.80
2017-08-18T23:09:13.954Z,0.70
2017-08-18T23:11:47.775Z,0.80
2017-08-18T23:14:21.380Z,0.80
2017-08-18T23:16:55.210Z,1.02
2017-08-18T23:19:30.299Z,0.80
2017-08-18T23:22:04.003Z,0.70
2017-08-18T23:24:38.732Z,0.70
2017-08-18T23:27:12.503Z,0.93
2017-08-18T23:29:46.043Z,0.90
2017-08-18T23:32:19.613Z,0.70
2017-08-18T23:34:53.255Z,0.75
2017-08-18T23:37:27.879Z,0.80
2017-08-18T23:40:02.186Z,0.80
2017-08-18T23:42:35.774Z,0.77
2017-08-18T23:45:09.585Z,0.85
2017-08-18T23:47:45.783Z,0.80
2017-08-18T23:50:20.734Z,0.80
2017-08-18T23:52:54.535Z,0.90
2017-08-18T23:55:30.196Z,1.10
2017-08-18T23:58:04.859Z,0.85
